Pagina principale
METAR-TAF:

METAR-TAF

Aeroporti :

La Chaux-de-Fonds, Svizzera

latitudine: 47-05-03N, longitudine: 006-47-37E, altezza: 1027 m

Osservazione

Il bollettino è stato emesso 34 minuti fa, alle 16:50 UTC
Vento 3 kt da nord/nord-est, variando fra nord-ovest e est
Temperature -2°C
Umidità 93%
Pressione 1026 hPa
Visibilità 10 km o più
Nuvoloso ad un'altezza di 600 ft
Nuvoloso ad un'altezza di 800 ft
neve debole

METAR: LSGC 201650Z AUTO 02003KT 310V090 9999 -SN BKN006 BKN008 M02/M03 Q1026

Ora: 18:24 (17:24 UTC)

Previsione

Il bollettino è stato emesso 2 ore e 59 minuti fa, alle 14:25 UTC
Previsione valida dal 20 alle 15 UTC al 20 alle 24 UTC
Vento 2 kt da direzioni variabili
Visibilità 10 km o più
Nuvoloso ad un'altezza di 1000 ft

TAF: LSGC 201425Z 2015/2024 VRB02KT 9999 BKN010

Osservazioni e previsioni meteorologiche di più di 4000 aeroporti (messaggi METAR e TAF).

Le stazioni disponibili sono rappresentate dai dischi gialli e rossi sulla carta.

Puntare il mouse per vedere il nome della stazione.

Clicca sopra per visualizzare le osservazioni e previsioni meteorologiche.

Per cambiare la mappa : fare clic sui pulsanti verdi con una croce nera per ingrandire, il pulsante verde con un trattino per diminuire, o sulla freccia verde per le mappe adiacenti.


METAR-TAF: